createdAt,value
2022-10-14T00:00:36.662Z,12.74
2022-10-14T00:03:03.593Z,12.78
2022-10-14T00:05:29.970Z,12.72
2022-10-14T00:07:56.409Z,12.65
2022-10-14T00:10:22.862Z,12.71
2022-10-14T00:12:50.386Z,12.65
2022-10-14T00:15:18.103Z,12.65
2022-10-14T00:17:44.515Z,12.64
2022-10-14T00:20:11.073Z,12.75
2022-10-14T00:22:37.470Z,12.64
2022-10-14T00:25:04.169Z,12.68
2022-10-14T00:27:30.548Z,12.58
2022-10-14T00:29:56.885Z,12.64
2022-10-14T00:32:23.315Z,12.67
2022-10-14T00:34:49.680Z,12.68
2022-10-14T00:37:16.085Z,12.63
2022-10-14T00:39:42.472Z,12.60
2022-10-14T00:42:14.292Z,12.64
2022-10-14T00:44:43.781Z,12.63
2022-10-14T00:47:10.447Z,12.63
2022-10-14T00:49:41.020Z,12.65
2022-10-14T00:52:22.224Z,12.67
2022-10-14T00:54:51.929Z,12.64
2022-10-14T00:57:19.716Z,12.65
2022-10-14T00:59:46.386Z,12.68
2022-10-14T01:02:12.918Z,12.72
2022-10-14T01:04:41.129Z,12.72
2022-10-14T01:07:27.606Z,12.65
2022-10-14T01:10:06.916Z,12.68
2022-10-14T01:12:36.243Z,12.63
2022-10-14T01:15:26.405Z,12.67
2022-10-14T01:18:15.036Z,12.71
2022-10-14T01:21:01.895Z,12.81
2022-10-14T01:23:47.445Z,12.78
2022-10-14T01:26:53.938Z,12.75
2022-10-14T01:29:26.833Z,12.69
2022-10-14T01:32:02.751Z,12.74
2022-10-14T01:34:38.324Z,12.72
2022-10-14T01:37:13.394Z,12.69
2022-10-14T01:39:47.732Z,12.69
2022-10-14T01:42:23.306Z,12.65
2022-10-14T01:44:55.216Z,12.71
2022-10-14T01:47:26.643Z,12.75
2022-10-14T01:50:03.183Z,12.71
2022-10-14T01:52:35.043Z,12.75
2022-10-14T01:55:05.541Z,12.71
2022-10-14T01:57:36.508Z,12.71
2022-10-14T02:00:05.545Z,12.68
2022-10-14T02:02:37.076Z,12.65
2022-10-14T02:05:14.389Z,12.68
2022-10-14T02:07:44.517Z,12.68
2022-10-14T02:10:21.442Z,12.68
2022-10-14T02:12:51.121Z,12.68
2022-10-14T02:15:44.563Z,12.74
2022-10-14T02:18:14.009Z,12.74
2022-10-14T02:20:49.686Z,12.79
2022-10-14T02:23:21.165Z,12.79
2022-10-14T02:25:49.398Z,12.75
2022-10-14T02:28:19.664Z,12.76
2022-10-14T02:30:53.682Z,12.78
2022-10-14T02:33:23.865Z,12.84
2022-10-14T02:35:51.826Z,12.79
2022-10-14T02:38:19.972Z,12.81
2022-10-14T02:40:50.081Z,12.88
2022-10-14T02:43:17.013Z,12.89
2022-10-14T02:45:44.838Z,12.93
2022-10-14T02:48:12.652Z,12.88
2022-10-14T02:50:39.407Z,12.99
2022-10-14T02:53:05.809Z,12.95
2022-10-14T02:55:32.223Z,12.91
2022-10-14T02:57:58.644Z,12.93
2022-10-14T03:00:25.068Z,12.96
2022-10-14T03:02:51.538Z,12.96
2022-10-14T03:05:17.935Z,12.93
2022-10-14T03:07:44.353Z,12.92
2022-10-14T03:10:10.818Z,12.95
2022-10-14T03:12:37.280Z,12.93
2022-10-14T03:15:04.111Z,12.95
2022-10-14T03:17:30.619Z,12.93
2022-10-14T03:19:58.373Z,12.96
2022-10-14T03:22:25.547Z,12.95
2022-10-14T03:24:51.959Z,12.89
2022-10-14T03:27:18.380Z,12.95
2022-10-14T03:29:44.827Z,12.93
2022-10-14T03:32:11.271Z,12.91
2022-10-14T03:34:37.823Z,12.95
2022-10-14T03:37:04.761Z,12.96
2022-10-14T03:39:31.524Z,12.95
2022-10-14T03:41:58.331Z,12.98
2022-10-14T03:44:24.744Z,13.03
2022-10-14T03:46:51.163Z,12.99
2022-10-14T03:49:17.790Z,13.00
2022-10-14T03:51:44.326Z,13.02
2022-10-14T03:54:10.865Z,13.06
2022-10-14T03:56:38.465Z,12.99
2022-10-14T03:59:04.916Z,12.99
2022-10-14T04:01:31.754Z,13.00
2022-10-14T04:03:58.185Z,13.02
2022-10-14T04:06:25.794Z,13.03
2022-10-14T04:08:52.202Z,12.99
2022-10-14T04:11:18.787Z,12.98
2022-10-14T04:13:45.378Z,12.99
2022-10-14T04:16:12.166Z,12.96
2022-10-14T04:18:39.208Z,12.95
2022-10-14T04:21:08.053Z,13.00
2022-10-14T04:23:35.093Z,12.96
2022-10-14T04:26:06.496Z,12.98
2022-10-14T04:28:34.986Z,12.99
2022-10-14T04:31:02.026Z,13.00
2022-10-14T04:33:28.642Z,12.98
2022-10-14T04:35:59.377Z,13.00
2022-10-14T04:38:26.468Z,12.99
2022-10-14T04:40:55.004Z,12.98
2022-10-14T04:43:21.767Z,13.00
2022-10-14T04:45:48.412Z,13.02
2022-10-14T04:48:15.777Z,12.99
2022-10-14T04:50:42.862Z,13.03
2022-10-14T04:53:13.484Z,13.02
2022-10-14T04:55:40.662Z,13.03
2022-10-14T04:58:07.125Z,12.99
2022-10-14T05:00:33.610Z,13.03
2022-10-14T05:03:00.034Z,12.98
2022-10-14T05:05:26.876Z,13.11
2022-10-14T05:07:53.261Z,13.02
2022-10-14T05:10:19.850Z,13.00
2022-10-14T05:12:46.328Z,13.00
2022-10-14T05:15:12.773Z,13.07
2022-10-14T05:17:39.474Z,13.05
2022-10-14T05:20:07.005Z,13.03
2022-10-14T05:22:34.185Z,13.03
2022-10-14T05:25:00.620Z,13.03
2022-10-14T05:27:27.102Z,13.06
2022-10-14T05:29:53.616Z,13.11
2022-10-14T05:32:20.572Z,13.02
2022-10-14T05:34:47.225Z,13.03
2022-10-14T05:37:13.731Z,13.05
2022-10-14T05:39:40.191Z,13.11
2022-10-14T05:42:06.817Z,13.03
2022-10-14T05:44:33.184Z,13.02
2022-10-14T05:46:59.588Z,13.02
2022-10-14T05:49:28.072Z,13.05
2022-10-14T05:51:54.499Z,13.07
2022-10-14T05:54:21.016Z,13.06
2022-10-14T05:56:47.707Z,13.11
2022-10-14T05:59:14.323Z,13.11
2022-10-14T06:01:40.999Z,13.13
2022-10-14T06:04:08.006Z,13.05
2022-10-14T06:06:34.389Z,13.13
2022-10-14T06:09:01.789Z,13.09
2022-10-14T06:11:28.218Z,13.12
2022-10-14T06:13:54.800Z,13.09
2022-10-14T06:16:21.211Z,13.12
2022-10-14T06:18:51.052Z,13.15
2022-10-14T06:21:20.696Z,13.15
2022-10-14T06:23:47.200Z,13.13
2022-10-14T06:26:13.667Z,13.11
2022-10-14T06:28:40.234Z,13.09
2022-10-14T06:32:36.086Z,13.13
2022-10-14T06:35:03.303Z,13.12
2022-10-14T06:37:29.811Z,13.13
2022-10-14T06:39:56.167Z,13.12
2022-10-14T06:42:22.929Z,13.13
2022-10-14T06:44:49.674Z,13.15
2022-10-14T06:47:16.328Z,13.09
2022-10-14T06:49:42.766Z,13.16
2022-10-14T06:52:09.224Z,13.12
2022-10-14T06:54:39.011Z,13.15
2022-10-14T06:57:06.300Z,13.13
2022-10-14T06:59:32.822Z,13.16
2022-10-14T07:01:59.488Z,13.13
2022-10-14T07:04:26.017Z,13.16
2022-10-14T07:06:53.413Z,13.18
2022-10-14T07:09:19.947Z,13.15
2022-10-14T07:11:46.448Z,13.16
2022-10-14T07:14:12.828Z,13.15
2022-10-14T07:16:39.339Z,13.20
2022-10-14T07:19:05.735Z,13.15
2022-10-14T07:21:32.231Z,13.22
2022-10-14T07:23:58.866Z,13.19
2022-10-14T07:26:25.305Z,13.16
2022-10-14T07:28:51.859Z,13.20
2022-10-14T07:31:18.432Z,13.19
2022-10-14T07:33:45.188Z,13.26
2022-10-14T07:36:17.208Z,13.22
2022-10-14T07:38:46.514Z,13.27
2022-10-14T07:41:19.002Z,13.32
2022-10-14T07:43:46.879Z,13.39
2022-10-14T07:46:14.736Z,13.34
2022-10-14T07:48:57.777Z,13.42
2022-10-14T07:51:25.194Z,13.34
2022-10-14T07:53:53.116Z,13.40
2022-10-14T07:56:22.262Z,13.39
2022-10-14T07:58:49.005Z,13.48
2022-10-14T08:01:18.821Z,13.51
2022-10-14T08:03:46.962Z,13.60
2022-10-14T08:06:14.110Z,13.64
2022-10-14T08:08:41.904Z,13.71
2022-10-14T08:11:12.609Z,13.67
2022-10-14T08:13:43.408Z,13.80
2022-10-14T08:16:13.696Z,13.75
2022-10-14T08:18:40.512Z,13.84
2022-10-14T08:21:07.271Z,13.97
2022-10-14T08:23:33.661Z,13.94
2022-10-14T08:26:00.072Z,13.91
2022-10-14T08:28:26.485Z,14.01
2022-10-14T08:30:53.394Z,14.04
2022-10-14T08:33:20.038Z,14.04
2022-10-14T08:35:50.248Z,14.08
2022-10-14T08:38:24.641Z,14.08
2022-10-14T08:41:22.254Z,14.16
2022-10-14T08:44:12.462Z,14.15
2022-10-14T08:46:44.862Z,14.19
2022-10-14T08:49:36.320Z,14.33
2022-10-14T08:52:10.755Z,14.29
2022-10-14T08:54:41.209Z,14.39
2022-10-14T08:57:16.553Z,14.37
2022-10-14T08:59:43.208Z,14.39
2022-10-14T09:02:48.093Z,14.42
2022-10-14T09:05:21.180Z,14.46
2022-10-14T09:10:39.671Z,14.56
2022-10-14T09:13:22.442Z,14.60
2022-10-14T09:15:58.065Z,14.60
2022-10-14T09:18:36.323Z,14.67
2022-10-14T09:21:33.753Z,14.77
2022-10-14T09:24:19.518Z,14.73
2022-10-14T09:29:50.542Z,14.76
2022-10-14T09:32:29.013Z,14.83
2022-10-14T09:34:57.199Z,14.94
2022-10-14T09:37:35.179Z,14.93
2022-10-14T09:40:07.446Z,15.04
2022-10-14T09:42:49.059Z,14.90
2022-10-14T09:45:18.640Z,14.85
2022-10-14T09:47:56.993Z,14.95
2022-10-14T09:50:25.204Z,15.11
2022-10-14T09:53:03.685Z,15.18
2022-10-14T09:55:31.744Z,15.17
2022-10-14T09:58:14.511Z,15.25
2022-10-14T10:00:41.471Z,15.39
2022-10-14T10:03:07.959Z,15.51
2022-10-14T10:05:36.013Z,15.76
2022-10-14T10:08:14.202Z,15.79
2022-10-14T10:10:40.782Z,15.69
2022-10-14T10:13:31.448Z,15.72
2022-10-14T10:15:59.889Z,15.67
2022-10-14T10:18:27.020Z,15.65
2022-10-14T10:21:06.767Z,15.65
2022-10-14T10:23:35.495Z,15.76
2022-10-14T10:26:16.503Z,15.70
2022-10-14T10:28:48.441Z,15.56
2022-10-14T10:31:35.138Z,15.58
2022-10-14T10:34:16.086Z,15.58
2022-10-14T10:36:53.596Z,15.89
2022-10-14T10:39:38.089Z,15.85
2022-10-14T10:42:23.086Z,15.73
2022-10-14T10:44:59.499Z,15.73
2022-10-14T10:47:49.406Z,15.89
2022-10-14T10:50:21.552Z,15.77
2022-10-14T10:52:57.451Z,15.72
2022-10-14T10:55:41.808Z,15.73
2022-10-14T10:58:30.292Z,15.65
2022-10-14T11:01:11.164Z,15.73
2022-10-14T11:03:43.422Z,15.76
2022-10-14T11:06:43.788Z,15.76
2022-10-14T11:09:56.829Z,15.69
2022-10-14T11:12:27.600Z,15.74
2022-10-14T11:14:53.949Z,15.80
2022-10-14T11:17:28.247Z,15.85
2022-10-14T11:20:11.312Z,15.82
2022-10-14T11:23:15.152Z,15.79
2022-10-14T11:26:01.852Z,15.77
2022-10-14T11:28:33.075Z,15.67
2022-10-14T11:31:17.909Z,15.51
2022-10-14T11:33:50.504Z,15.39
2022-10-14T11:36:37.989Z,15.32
2022-10-14T11:39:22.744Z,15.18
2022-10-14T11:41:54.907Z,15.12
2022-10-14T11:44:40.515Z,15.18
2022-10-14T11:47:24.538Z,15.15
2022-10-14T11:50:01.815Z,15.21
2022-10-14T11:52:59.987Z,15.04
2022-10-14T11:55:33.201Z,15.08
2022-10-14T11:58:08.184Z,15.17
2022-10-14T12:00:37.017Z,15.27
2022-10-14T12:03:11.094Z,15.39
2022-10-14T12:05:51.034Z,15.36
2022-10-14T12:08:36.468Z,15.42
2022-10-14T12:11:09.084Z,15.39
2022-10-14T12:13:48.449Z,15.31
2022-10-14T12:16:20.844Z,15.46
2022-10-14T12:18:52.995Z,15.61
2022-10-14T12:21:31.785Z,15.52
2022-10-14T12:24:06.260Z,15.43
2022-10-14T12:26:42.221Z,15.55
2022-10-14T12:29:14.350Z,15.51
2022-10-14T12:31:40.841Z,15.49
2022-10-14T12:34:17.442Z,15.46
2022-10-14T12:36:47.167Z,15.43
2022-10-14T12:39:16.614Z,15.48
2022-10-14T12:41:56.087Z,15.42
2022-10-14T12:44:26.187Z,15.32
2022-10-14T12:46:53.446Z,15.36
2022-10-14T12:49:37.880Z,15.32
2022-10-14T12:52:07.445Z,15.35
2022-10-14T12:54:37.368Z,15.31
2022-10-14T12:57:15.132Z,15.31
2022-10-14T12:59:41.722Z,15.30
2022-10-14T13:02:22.136Z,15.27
2022-10-14T13:04:52.108Z,15.27
2022-10-14T13:07:42.856Z,15.22
2022-10-14T13:10:26.921Z,15.34
2022-10-14T13:12:53.854Z,15.24
2022-10-14T13:15:35.114Z,15.30
2022-10-14T13:18:43.195Z,15.31
2022-10-14T13:21:35.277Z,15.43
2022-10-14T13:24:23.575Z,15.55
2022-10-14T13:26:53.022Z,15.61
2022-10-14T13:29:31.358Z,15.66
2022-10-14T13:32:22.874Z,15.74
2022-10-14T13:35:01.229Z,15.74
2022-10-14T13:37:45.716Z,15.79
2022-10-14T13:40:24.398Z,15.79
2022-10-14T13:42:54.975Z,15.80
2022-10-14T13:45:38.260Z,15.79
2022-10-14T13:48:23.504Z,15.76
2022-10-14T13:50:58.697Z,15.80
2022-10-14T13:53:33.355Z,15.90
2022-10-14T13:55:59.770Z,15.86
2022-10-14T13:58:26.202Z,15.96
2022-10-14T14:00:57.288Z,15.87
2022-10-14T14:03:28.466Z,15.83
2022-10-14T14:05:55.875Z,15.85
2022-10-14T14:08:39.922Z,15.80
2022-10-14T14:11:16.776Z,15.67
2022-10-14T14:13:57.541Z,15.72
2022-10-14T14:16:35.483Z,15.69
2022-10-14T14:19:08.367Z,15.58
2022-10-14T14:21:36.039Z,15.55
2022-10-14T14:24:14.580Z,15.48
2022-10-14T14:26:41.032Z,15.45
2022-10-14T14:29:16.793Z,15.36
2022-10-14T14:34:30.752Z,15.39
2022-10-14T14:37:06.101Z,15.41
2022-10-14T14:39:58.795Z,15.43
2022-10-14T14:42:27.656Z,15.48
2022-10-14T14:45:01.590Z,15.51
2022-10-14T14:47:29.370Z,15.53
2022-10-14T14:50:24.987Z,15.56
2022-10-14T14:52:47.040Z,15.72
2022-10-14T14:55:46.590Z,15.69
2022-10-14T14:58:38.111Z,15.67
2022-10-14T15:01:07.721Z,15.87
2022-10-14T15:04:13.467Z,15.86
2022-10-14T15:06:51.659Z,15.89
2022-10-14T15:09:33.564Z,15.80
2022-10-14T15:12:01.837Z,15.85
2022-10-14T15:14:44.412Z,15.85
2022-10-14T15:17:33.648Z,15.91
2022-10-14T15:20:29.631Z,15.91
2022-10-14T15:22:56.271Z,15.74
2022-10-14T15:25:29.295Z,15.77
2022-10-14T15:28:03.082Z,15.79
2022-10-14T15:30:34.432Z,15.80
2022-10-14T15:33:13.718Z,15.82
2022-10-14T15:35:41.105Z,15.76
2022-10-14T15:38:17.472Z,15.79
2022-10-14T15:40:45.656Z,15.76
2022-10-14T15:43:17.407Z,15.70
2022-10-14T15:45:46.264Z,15.69
2022-10-14T15:48:19.945Z,15.62
2022-10-14T15:50:48.135Z,15.62
2022-10-14T15:53:16.806Z,15.62
2022-10-14T15:55:44.082Z,15.62
2022-10-14T15:58:10.575Z,15.61
2022-10-14T16:00:37.012Z,15.56
2022-10-14T16:03:03.767Z,15.55
2022-10-14T16:05:30.276Z,15.53
2022-10-14T16:07:57.436Z,15.53
2022-10-14T16:10:24.825Z,15.61
2022-10-14T16:12:51.467Z,15.59
2022-10-14T16:15:31.642Z,15.63
2022-10-14T16:17:58.308Z,15.67
2022-10-14T16:20:26.007Z,15.76
2022-10-14T16:22:52.736Z,15.67
2022-10-14T16:25:30.953Z,15.70
2022-10-14T16:27:57.864Z,15.62
2022-10-14T16:30:24.431Z,15.82
2022-10-14T16:32:51.167Z,15.83
2022-10-14T16:35:17.898Z,15.72
2022-10-14T16:37:44.490Z,15.70
2022-10-14T16:40:11.867Z,15.73
2022-10-14T16:42:38.771Z,15.61
2022-10-14T16:45:05.748Z,15.61
2022-10-14T16:47:32.374Z,15.58
2022-10-14T16:49:59.867Z,15.52
2022-10-14T16:52:26.578Z,15.55
2022-10-14T16:54:53.219Z,15.55
2022-10-14T16:57:19.644Z,15.49
2022-10-14T16:59:46.063Z,15.42
2022-10-14T17:02:15.032Z,15.41
2022-10-14T17:04:42.307Z,15.35
2022-10-14T17:07:09.590Z,15.35
2022-10-14T17:09:36.499Z,15.38
2022-10-14T17:12:07.967Z,15.31
2022-10-14T17:14:37.570Z,15.39
2022-10-14T17:17:04.639Z,15.36
2022-10-14T17:19:31.156Z,15.31
2022-10-14T17:21:57.663Z,15.31
2022-10-14T17:24:24.152Z,15.21
2022-10-14T17:26:50.549Z,15.24
2022-10-14T17:29:17.022Z,15.17
2022-10-14T17:31:44.211Z,15.15
2022-10-14T17:34:10.762Z,15.10
2022-10-14T17:36:37.704Z,15.11
2022-10-14T17:39:06.043Z,15.14
2022-10-14T17:41:34.588Z,15.14
2022-10-14T17:44:01.672Z,15.01
2022-10-14T17:46:29.442Z,15.03
2022-10-14T17:48:58.837Z,15.04
2022-10-14T17:51:26.652Z,15.01
2022-10-14T17:53:58.683Z,14.97
2022-10-14T17:57:37.237Z,14.97
2022-10-14T18:00:04.486Z,15.00
2022-10-14T18:02:31.342Z,14.91
2022-10-14T18:04:57.855Z,14.98
2022-10-14T18:07:24.593Z,14.95
2022-10-14T18:09:51.376Z,14.90
2022-10-14T18:12:17.778Z,14.90
2022-10-14T18:14:44.309Z,15.07
2022-10-14T18:17:12.684Z,15.04
2022-10-14T18:19:46.155Z,15.08
2022-10-14T18:22:16.846Z,15.07
2022-10-14T18:24:43.873Z,15.01
2022-10-14T18:27:11.489Z,15.15
2022-10-14T18:29:39.070Z,15.14
2022-10-14T18:32:05.907Z,15.11
2022-10-14T18:34:32.407Z,15.18
2022-10-14T18:37:01.810Z,15.12
2022-10-14T18:39:28.326Z,14.94
2022-10-14T18:41:54.692Z,15.05
2022-10-14T18:44:21.059Z,14.98
2022-10-14T18:46:47.591Z,14.95
2022-10-14T18:49:14.682Z,14.97
2022-10-14T18:51:41.196Z,15.07
2022-10-14T18:54:13.251Z,15.21
2022-10-14T18:56:39.981Z,15.17
2022-10-14T18:59:14.064Z,15.05
2022-10-14T19:01:41.700Z,15.22
2022-10-14T19:04:12.972Z,15.24
2022-10-14T19:06:39.911Z,15.21
2022-10-14T19:09:06.607Z,15.17
2022-10-14T19:11:34.026Z,15.22
2022-10-14T19:14:03.578Z,15.15
2022-10-14T19:16:32.421Z,15.22
2022-10-14T19:19:01.462Z,15.27
2022-10-14T19:21:32.105Z,15.36
2022-10-14T19:24:00.544Z,15.53
2022-10-14T19:26:31.068Z,15.46
2022-10-14T19:28:59.578Z,15.35
2022-10-14T19:31:28.586Z,15.35
2022-10-14T19:33:56.746Z,15.34
2022-10-14T19:36:25.132Z,15.30
2022-10-14T19:38:59.442Z,15.24
2022-10-14T19:41:27.992Z,15.27
2022-10-14T19:43:56.013Z,15.32
2022-10-14T19:46:29.569Z,15.34
2022-10-14T19:49:05.167Z,15.20
2022-10-14T19:51:33.772Z,15.15
2022-10-14T19:54:00.567Z,15.11
2022-10-14T19:56:28.726Z,15.22
2022-10-14T19:58:57.276Z,15.22
2022-10-14T20:01:25.920Z,15.20
2022-10-14T20:03:53.235Z,15.14
2022-10-14T20:06:21.387Z,15.31
2022-10-14T20:08:48.979Z,15.41
2022-10-14T20:11:17.264Z,15.32
2022-10-14T20:13:44.665Z,15.31
2022-10-14T20:16:12.866Z,15.41
2022-10-14T20:18:39.581Z,15.28
2022-10-14T20:21:07.577Z,15.18
2022-10-14T20:23:35.493Z,15.30
2022-10-14T20:26:12.744Z,15.25
2022-10-14T20:28:39.694Z,15.35
2022-10-14T20:31:08.187Z,15.46
2022-10-14T20:33:35.014Z,15.38
2022-10-14T20:36:05.465Z,15.27
2022-10-14T20:38:32.704Z,15.32
2022-10-14T20:41:13.269Z,15.48
2022-10-14T20:43:41.020Z,15.35
2022-10-14T20:46:07.972Z,15.41
2022-10-14T20:48:34.806Z,15.42
2022-10-14T20:51:05.519Z,15.31
2022-10-14T20:53:32.348Z,15.35
2022-10-14T20:56:08.126Z,15.28
2022-10-14T20:58:35.245Z,15.31
2022-10-14T21:01:15.651Z,15.45
2022-10-14T21:03:44.212Z,15.22
2022-10-14T21:06:14.336Z,15.34
2022-10-14T21:08:40.903Z,15.34
2022-10-14T21:11:13.955Z,15.35
2022-10-14T21:13:47.680Z,15.42
2022-10-14T21:16:27.319Z,15.32
2022-10-14T21:18:58.001Z,15.32
2022-10-14T21:21:27.256Z,15.24
2022-10-14T21:23:54.519Z,15.35
2022-10-14T21:26:20.938Z,15.48
2022-10-14T21:28:47.549Z,15.27
2022-10-14T21:31:17.522Z,15.14
2022-10-14T21:33:46.036Z,14.94
2022-10-14T21:36:14.463Z,14.90
2022-10-14T21:38:41.472Z,14.91
2022-10-14T21:41:08.474Z,14.94
2022-10-14T21:43:36.266Z,15.01
2022-10-14T21:46:03.807Z,15.01
2022-10-14T21:48:30.465Z,14.93
2022-10-14T21:51:05.745Z,14.93
2022-10-14T21:53:33.209Z,14.88
2022-10-14T21:56:00.164Z,15.01
2022-10-14T21:58:27.110Z,14.88
2022-10-14T22:01:02.059Z,14.80
2022-10-14T22:03:28.706Z,14.74
2022-10-14T22:05:59.897Z,14.84
2022-10-14T22:08:30.953Z,14.84
2022-10-14T22:10:57.679Z,14.80
2022-10-14T22:13:25.562Z,14.76
2022-10-14T22:15:52.409Z,14.80
2022-10-14T22:18:18.882Z,14.80
2022-10-14T22:20:45.483Z,14.84
2022-10-14T22:23:12.021Z,14.85
2022-10-14T22:25:38.425Z,14.94
2022-10-14T22:28:06.031Z,14.88
2022-10-14T22:30:34.856Z,14.81
2022-10-14T22:33:01.732Z,14.83
2022-10-14T22:35:28.190Z,14.88
2022-10-14T22:37:54.609Z,14.98
2022-10-14T22:40:21.115Z,14.88
2022-10-14T22:42:54.606Z,14.93
2022-10-14T22:45:21.110Z,14.95
2022-10-14T22:47:47.721Z,15.01
2022-10-14T22:50:20.259Z,15.21
2022-10-14T22:52:46.887Z,15.11
2022-10-14T22:55:15.248Z,15.03
2022-10-14T22:57:41.638Z,15.05
2022-10-14T23:00:09.007Z,15.12
2022-10-14T23:02:35.467Z,15.30
2022-10-14T23:05:04.910Z,15.11
2022-10-14T23:07:32.190Z,15.31
2022-10-14T23:09:58.735Z,15.15
2022-10-14T23:12:25.525Z,15.22
2022-10-14T23:14:52.291Z,15.34
2022-10-14T23:17:24.818Z,15.12
2022-10-14T23:19:51.972Z,15.15
2022-10-14T23:22:22.576Z,15.14
2022-10-14T23:24:49.437Z,15.22
2022-10-14T23:27:15.885Z,15.04
2022-10-14T23:29:42.417Z,15.01
2022-10-14T23:32:09.250Z,14.91
2022-10-14T23:34:35.845Z,14.84
2022-10-14T23:37:02.661Z,14.88
2022-10-14T23:39:29.224Z,14.87
2022-10-14T23:41:58.999Z,14.93
2022-10-14T23:44:27.528Z,14.85
2022-10-14T23:47:03.560Z,14.87
2022-10-14T23:49:29.974Z,14.98
2022-10-14T23:51:56.725Z,14.98
2022-10-14T23:54:26.797Z,15.04
2022-10-14T23:56:56.445Z,14.97
